Terminal Aerodrome Forecast
Issued by NWS

Home | Current Version | Previous Version | Graphics & Text | Print | Product List | Glossary On
Versions: 1 2 3 4 5 6 7 8 9 10 11 12 13 14 15 16 17
000
FTUS41 KCLE 250305 AAB
TAFFDY
TAF AMD
KFDY 250305Z 2503/2524 25006KT P6SM BKN025 OVC100
     FM250400 23006KT P6SM SCT020
      TEMPO 2509/2513 3SM BR
     FM251500 23010KT P6SM BKN020
     FM251700 23010KT P6SM BKN040
     FM252100 23010KT 3SM TSRA OVC025CB
     FM252300 27008KT P6SM SCT025 BKN080=

USA.gov is the U.S. government's official web portal to all federal, state and local government web resources and services.